FNCT METAR and TAF | Updated Today

FNCT METAR

Catumbela Airport

Observation time: 49 min. ago

FNCT 200600Z 00000KT 9999 OVC015 23/20 Q1013

Need help? Read our tutorial on how to read METARs or read the parsed version below.

Catumbela Airport (FNCT) METAR

  • Weather conditions on Fri, 20 May 2022 06:00:00 +0000 (49 min. ago):
  • Present conditions: Dry
  • Clouds: Overcast sky at 457 meters
  • Visibility: Greater than 10 km
  • Wind: Calm
  • Temperature: 23 celsius
  • Dew point: 20 celsius
  • Pressure: 1013 millibars
  • Remarks: None


Useful to know...

FNCT TAF

Catumbela Airport

TAF FNCT 192255Z 2000/2012 VRB03KT 8000 BKN015 PROB30 TEMPO 2002/2006 5000 BR TEMPO 2006/2010 06006KT BECMG 2010/2012 31010KT
Observation time: 7:54 hr. ago
Need help? Read our tutorial on how to read TAFs or read the parsed version below.

Parsed version of TAF for Catumbela Airport (FNCT)

  • From 20 May at 00:00 UTC, to day 20 of the month at 12:00 UTC
  • Clouds: Broken sky at 457 meters
  • Visibility: 8000 meters
  • Wind: Variable at 3
  • Expected to arise temporarily, from 20 May at 02:00 UTC, to day 20 of the month at 06:00 UTC
    Probability of 30%
  • Visibility: 5000 meters
  • Other: Mist
  • Expected to arise temporarily, from 20 May at 06:00 UTC, to day 20 of the month at 10:00 UTC
  • Wind: 60 degrees at 6
  • Expected to arise soon, from 20 May at 10:00 UTC, to day 20 of the month at 12:00 UTC
  • Wind: 310 degrees at 10